createdAt,value
2022-09-04T00:00:40.167Z,0.00
2022-09-04T00:01:38.815Z,0.00
2022-09-04T00:02:38.128Z,0.00
2022-09-04T00:03:37.136Z,0.00
2022-09-04T00:04:37.233Z,0.00
2022-09-04T00:05:37.086Z,0.00
2022-09-04T00:06:37.078Z,0.00
2022-09-04T00:07:37.068Z,0.00
2022-09-04T00:08:37.055Z,0.00
2022-09-04T00:09:37.037Z,0.00
2022-09-04T00:10:37.048Z,0.00
2022-09-04T00:11:37.008Z,0.00
2022-09-04T00:12:36.998Z,0.00
2022-09-04T00:13:36.991Z,0.00
2022-09-04T00:14:36.969Z,0.00
2022-09-04T00:15:36.950Z,0.00
2022-09-04T00:16:37.025Z,0.00
2022-09-04T00:17:36.933Z,0.00
2022-09-04T00:18:36.912Z,0.00
2022-09-04T00:19:39.901Z,0.00
2022-09-04T00:20:39.937Z,0.00
2022-09-04T00:21:36.873Z,0.00
2022-09-04T00:22:36.893Z,0.00
2022-09-04T00:23:36.853Z,0.00
2022-09-04T00:24:36.844Z,0.00
2022-09-04T00:25:36.816Z,0.00
2022-09-04T00:26:36.871Z,0.00
2022-09-04T00:27:36.791Z,0.00
2022-09-04T00:28:36.792Z,0.00
2022-09-04T00:29:36.766Z,0.00
2022-09-04T00:30:36.845Z,0.00
2022-09-04T00:31:36.747Z,0.00
2022-09-04T00:32:36.768Z,0.00
2022-09-04T00:33:36.737Z,0.00
2022-09-04T00:34:36.708Z,0.00
2022-09-04T00:35:36.687Z,0.00
2022-09-04T00:36:36.678Z,0.00
2022-09-04T00:37:36.688Z,0.00
2022-09-04T00:38:36.649Z,0.00
2022-09-04T00:39:39.684Z,0.00
2022-09-04T00:40:39.659Z,0.00
2022-09-04T00:41:36.600Z,0.00
2022-09-04T00:42:36.640Z,0.00
2022-09-04T00:43:36.571Z,0.00
2022-09-04T00:44:36.573Z,0.00
2022-09-04T00:45:36.637Z,0.00
2022-09-04T00:46:36.551Z,0.00
2022-09-04T00:47:36.573Z,0.00
2022-09-04T00:48:36.604Z,0.00
2022-09-04T00:49:36.517Z,0.00
2022-09-04T00:50:36.519Z,0.00
2022-09-04T00:51:36.484Z,0.00
2022-09-04T00:52:37.155Z,0.00
2022-09-04T00:53:36.501Z,0.00
2022-09-04T00:54:36.434Z,0.00
2022-09-04T00:55:36.430Z,0.00
2022-09-04T00:56:36.404Z,0.00
2022-09-04T00:57:36.419Z,0.00
2022-09-04T00:58:36.416Z,0.00
2022-09-04T00:59:39.388Z,0.00
2022-09-04T01:00:39.367Z,0.00
2022-09-04T01:01:36.741Z,0.00
2022-09-04T01:02:36.401Z,0.00
2022-09-04T01:03:36.309Z,0.00
2022-09-04T01:04:36.327Z,0.00
2022-09-04T01:05:36.297Z,0.00
2022-09-04T01:06:36.289Z,0.00
2022-09-04T01:07:36.260Z,0.00
2022-09-04T01:08:36.244Z,0.00
2022-09-04T01:09:36.229Z,0.00
2022-09-04T01:10:36.243Z,0.00
2022-09-04T01:11:36.221Z,0.00
2022-09-04T01:12:36.178Z,0.00
2022-09-04T01:13:36.178Z,0.00
2022-09-04T01:14:36.153Z,0.00
2022-09-04T01:15:36.162Z,0.00
2022-09-04T01:16:36.186Z,0.00
2022-09-04T01:17:36.155Z,0.00
2022-09-04T01:18:36.115Z,0.00
2022-09-04T01:19:39.085Z,0.00
2022-09-04T01:20:39.111Z,0.00
2022-09-04T01:21:36.098Z,0.00
2022-09-04T01:22:36.178Z,0.00
2022-09-04T01:23:36.038Z,0.00
2022-09-04T01:24:36.031Z,0.00
2022-09-04T01:25:36.018Z,0.00
2022-09-04T01:26:36.014Z,0.00
2022-09-04T01:27:35.980Z,0.00
2022-09-04T01:28:35.991Z,0.00
2022-09-04T01:29:35.960Z,0.00
2022-09-04T01:30:35.952Z,0.00
2022-09-04T01:31:35.960Z,0.00
2022-09-04T01:32:35.911Z,0.00
2022-09-04T01:33:35.902Z,0.00
2022-09-04T01:34:35.909Z,0.00
2022-09-04T01:35:35.873Z,0.00
2022-09-04T01:36:35.863Z,0.00
2022-09-04T01:37:35.844Z,0.00
2022-09-04T01:38:35.864Z,0.00
2022-09-04T01:39:38.865Z,0.00
2022-09-04T01:40:38.835Z,0.00
2022-09-04T01:41:38.499Z,0.00
2022-09-04T01:42:35.788Z,0.00
2022-09-04T01:43:35.758Z,0.00
2022-09-04T01:44:35.796Z,0.00
2022-09-04T01:45:35.755Z,0.00
2022-09-04T01:46:35.729Z,0.00
2022-09-04T01:47:35.730Z,0.00
2022-09-04T01:48:35.691Z,0.00
2022-09-04T01:49:35.692Z,0.00
2022-09-04T01:50:35.742Z,0.00
2022-09-04T01:51:35.650Z,0.00
2022-09-04T01:52:35.640Z,0.00
2022-09-04T01:53:35.631Z,0.00
2022-09-04T01:54:35.612Z,0.00
2022-09-04T01:55:35.592Z,0.00
2022-09-04T01:56:35.613Z,0.00
2022-09-04T01:57:35.594Z,0.00
2022-09-04T01:58:35.592Z,0.00
2022-09-04T01:59:38.585Z,0.00
2022-09-04T02:00:38.536Z,0.00
2022-09-04T02:01:35.577Z,0.00
2022-09-04T02:02:35.576Z,0.00
2022-09-04T02:03:35.485Z,0.00
2022-09-04T02:04:35.464Z,0.00
2022-09-04T02:05:35.498Z,0.00
2022-09-04T02:06:35.446Z,0.00
2022-09-04T02:07:35.443Z,0.00
2022-09-04T02:08:35.419Z,0.00
2022-09-04T02:09:35.440Z,0.00
2022-09-04T02:10:35.390Z,0.00
2022-09-04T02:11:35.408Z,0.00
2022-09-04T02:12:35.367Z,0.00
2022-09-04T02:13:35.349Z,0.00
2022-09-04T02:14:35.337Z,0.00
2022-09-04T02:15:35.369Z,0.00
2022-09-04T02:16:35.375Z,0.00
2022-09-04T02:17:35.303Z,0.00
2022-09-04T02:18:35.322Z,0.00
2022-09-04T02:19:38.265Z,0.00
2022-09-04T02:20:38.268Z,0.00
2022-09-04T02:21:35.242Z,0.00
2022-09-04T02:22:35.252Z,0.00
2022-09-04T02:23:35.206Z,0.00
2022-09-04T02:24:35.201Z,0.00
2022-09-04T02:25:35.286Z,0.00
2022-09-04T02:26:35.178Z,0.00
2022-09-04T02:27:35.168Z,0.00
2022-09-04T02:28:35.145Z,0.00
2022-09-04T02:29:35.134Z,0.00
2022-09-04T02:30:35.125Z,0.00
2022-09-04T02:31:35.205Z,0.00
2022-09-04T02:32:35.124Z,0.00
2022-09-04T02:33:35.076Z,0.00
2022-09-04T02:34:35.057Z,0.00
2022-09-04T02:35:35.049Z,0.00
2022-09-04T02:36:35.050Z,0.00
2022-09-04T02:37:35.057Z,0.00
2022-09-04T02:38:35.016Z,0.00
2022-09-04T02:39:38.067Z,0.00
2022-09-04T02:40:38.007Z,0.00
2022-09-04T02:41:34.981Z,0.00
2022-09-04T02:42:34.992Z,0.00
2022-09-04T02:43:34.959Z,0.00
2022-09-04T02:44:34.933Z,0.00
2022-09-04T02:45:34.922Z,0.00
2022-09-04T02:46:34.920Z,0.00
2022-09-04T02:47:34.895Z,0.00
2022-09-04T02:48:34.945Z,0.00
2022-09-04T02:49:34.879Z,0.00
2022-09-04T02:50:34.855Z,0.00
2022-09-04T02:51:34.851Z,0.00
2022-09-04T02:52:34.854Z,0.00
2022-09-04T02:53:34.817Z,0.00
2022-09-04T02:54:34.855Z,0.00
2022-09-04T02:55:34.807Z,0.00
2022-09-04T02:56:34.806Z,0.00
2022-09-04T02:57:34.770Z,0.00
2022-09-04T02:58:34.749Z,0.00
2022-09-04T02:59:37.768Z,0.00
2022-09-04T03:00:37.830Z,0.00
2022-09-04T03:01:34.773Z,0.00
2022-09-04T03:02:34.688Z,0.00
2022-09-04T03:03:34.736Z,0.00
2022-09-04T03:04:34.666Z,0.00
2022-09-04T03:05:34.691Z,0.00
2022-09-04T03:06:34.633Z,0.00
2022-09-04T03:07:34.666Z,0.00
2022-09-04T03:08:36.195Z,0.00
2022-09-04T03:09:34.592Z,0.00
2022-09-04T03:10:34.574Z,0.00
2022-09-04T03:11:34.563Z,0.00
2022-09-04T03:12:34.585Z,0.00
2022-09-04T03:13:34.614Z,0.00
2022-09-04T03:14:34.679Z,0.00
2022-09-04T03:15:34.524Z,0.00
2022-09-04T03:16:34.549Z,0.00
2022-09-04T03:17:34.485Z,0.00
2022-09-04T03:18:34.496Z,0.00
2022-09-04T03:19:37.485Z,0.00
2022-09-04T03:20:37.466Z,0.00
2022-09-04T03:21:34.421Z,0.00
2022-09-04T03:22:34.428Z,0.00
2022-09-04T03:23:34.407Z,0.00
2022-09-04T03:24:34.378Z,0.00
2022-09-04T03:25:34.361Z,0.00
2022-09-04T03:26:34.359Z,0.00
2022-09-04T03:27:34.351Z,0.00
2022-09-04T03:28:34.501Z,0.00
2022-09-04T03:29:34.334Z,0.00
2022-09-04T03:30:34.348Z,0.00
2022-09-04T03:31:34.401Z,0.00
2022-09-04T03:32:34.274Z,0.00
2022-09-04T03:33:34.265Z,0.00
2022-09-04T03:34:34.275Z,0.00
2022-09-04T03:35:34.234Z,0.00
2022-09-04T03:36:34.217Z,0.00
2022-09-04T03:37:34.230Z,0.00
2022-09-04T03:38:34.197Z,0.00
2022-09-04T03:39:37.269Z,0.00
2022-09-04T03:40:37.202Z,0.00
2022-09-04T03:41:34.157Z,0.00
2022-09-04T03:42:34.166Z,0.00
2022-09-04T03:43:34.147Z,0.00
2022-09-04T03:44:34.143Z,0.00
2022-09-04T03:45:34.116Z,0.00
2022-09-04T03:46:34.204Z,0.00
2022-09-04T03:47:34.079Z,0.00
2022-09-04T03:48:34.059Z,0.00
2022-09-04T03:49:34.057Z,0.00
2022-09-04T03:50:34.031Z,0.00
2022-09-04T03:51:34.022Z,0.00
2022-09-04T03:52:34.176Z,0.00
2022-09-04T03:53:34.001Z,0.00
2022-09-04T03:54:34.010Z,0.00
2022-09-04T03:55:34.022Z,0.00
2022-09-04T03:56:33.983Z,0.00
2022-09-04T03:57:33.946Z,0.00
2022-09-04T03:58:33.952Z,0.00
2022-09-04T03:59:38.054Z,0.00
2022-09-04T04:00:36.954Z,0.00
2022-09-04T04:01:33.942Z,0.00
2022-09-04T04:02:33.923Z,0.00
2022-09-04T04:03:33.854Z,0.00
2022-09-04T04:04:33.845Z,0.00
2022-09-04T04:05:33.865Z,0.00
2022-09-04T04:06:33.819Z,0.00
2022-09-04T04:07:33.797Z,0.00
2022-09-04T04:08:33.796Z,0.00
2022-09-04T04:09:33.777Z,0.00
2022-09-04T04:10:33.930Z,0.00
2022-09-04T04:11:35.198Z,0.00
2022-09-04T04:12:34.744Z,0.00
2022-09-04T04:13:33.747Z,0.00
2022-09-04T04:14:33.737Z,0.00
2022-09-04T04:15:33.708Z,0.00
2022-09-04T04:16:33.823Z,0.00
2022-09-04T04:17:33.668Z,0.00
2022-09-04T04:18:33.657Z,0.00
2022-09-04T04:19:36.679Z,0.00
2022-09-04T04:20:36.661Z,0.00
2022-09-04T04:21:33.619Z,0.00
2022-09-04T04:22:33.640Z,0.00
2022-09-04T04:23:33.600Z,0.00
2022-09-04T04:24:33.574Z,0.00
2022-09-04T04:25:33.552Z,0.00
2022-09-04T04:26:33.559Z,0.00
2022-09-04T04:27:33.584Z,0.00
2022-09-04T04:28:33.563Z,0.00
2022-09-04T04:29:34.503Z,0.00
2022-09-04T04:30:33.493Z,0.00
2022-09-04T04:31:33.524Z,5.62
2022-09-04T04:32:33.497Z,5.62
2022-09-04T04:33:33.521Z,5.62
2022-09-04T04:34:34.193Z,5.62
2022-09-04T04:35:33.443Z,5.62
2022-09-04T04:36:33.426Z,5.62
2022-09-04T04:37:33.415Z,5.62
2022-09-04T04:38:33.415Z,5.62
2022-09-04T04:39:36.434Z,11.25
2022-09-04T04:40:36.370Z,11.25
2022-09-04T04:41:33.337Z,11.25
2022-09-04T04:42:33.317Z,11.25
2022-09-04T04:43:33.379Z,11.25
2022-09-04T04:44:34.295Z,16.88
2022-09-04T04:45:33.298Z,16.88
2022-09-04T04:46:33.338Z,16.88
2022-09-04T04:47:33.270Z,16.88
2022-09-04T04:48:33.249Z,22.50
2022-09-04T04:49:34.749Z,22.50
2022-09-04T04:50:33.222Z,22.50
2022-09-04T04:51:33.247Z,22.50
2022-09-04T04:52:33.200Z,28.12
2022-09-04T04:53:33.223Z,28.12
2022-09-04T04:54:33.923Z,28.12
2022-09-04T04:55:33.272Z,33.75
2022-09-04T04:56:33.150Z,39.38
2022-09-04T04:57:33.161Z,56.25
2022-09-04T04:58:33.142Z,61.88
2022-09-04T04:59:43.613Z,67.50
2022-09-04T05:00:36.162Z,73.12
2022-09-04T05:01:33.191Z,78.75
2022-09-04T05:02:33.114Z,78.75
2022-09-04T05:03:33.053Z,84.38
2022-09-04T05:04:33.796Z,90.00
2022-09-04T05:05:33.077Z,95.62
2022-09-04T05:06:33.026Z,101.25
2022-09-04T05:07:32.987Z,101.25
2022-09-04T05:08:32.967Z,106.88
2022-09-04T05:09:33.740Z,112.50
2022-09-04T05:10:32.978Z,118.12
2022-09-04T05:11:32.941Z,123.75
2022-09-04T05:12:32.918Z,123.75
2022-09-04T05:13:32.938Z,129.38
2022-09-04T05:14:33.656Z,129.38
2022-09-04T05:15:33.132Z,135.00
2022-09-04T05:16:32.928Z,140.62
2022-09-04T05:17:32.867Z,140.62
2022-09-04T05:18:32.879Z,140.62
2022-09-04T05:19:36.580Z,135.00
2022-09-04T05:20:35.874Z,140.62
2022-09-04T05:21:32.843Z,123.75
2022-09-04T05:22:34.430Z,90.00
2022-09-04T05:23:32.812Z,78.75
2022-09-04T05:24:33.521Z,78.75
2022-09-04T05:25:32.763Z,101.25
2022-09-04T05:26:32.802Z,140.62
2022-09-04T05:27:32.733Z,163.12
2022-09-04T05:28:32.723Z,168.75
2022-09-04T05:29:32.876Z,163.12
2022-09-04T05:30:32.724Z,146.25
2022-09-04T05:31:32.696Z,151.88
2022-09-04T05:32:33.696Z,180.00
2022-09-04T05:33:32.665Z,185.62
2022-09-04T05:34:33.390Z,185.62
2022-09-04T05:35:35.453Z,191.25
2022-09-04T05:36:32.677Z,196.88
2022-09-04T05:37:32.626Z,202.50
2022-09-04T05:38:32.577Z,208.12
2022-09-04T05:39:36.358Z,208.12
2022-09-04T05:40:35.577Z,213.75
2022-09-04T05:41:32.555Z,213.75
2022-09-04T05:42:32.569Z,219.38
2022-09-04T05:43:32.511Z,225.00
2022-09-04T05:44:32.510Z,225.00
2022-09-04T05:45:32.479Z,225.00
2022-09-04T05:46:32.627Z,230.62
2022-09-04T05:47:32.509Z,230.62
2022-09-04T05:48:32.452Z,230.62
2022-09-04T05:49:32.476Z,236.25
2022-09-04T05:50:32.420Z,236.25
2022-09-04T05:51:34.846Z,236.25
2022-09-04T05:52:32.428Z,236.25
2022-09-04T05:53:32.397Z,230.62
2022-09-04T05:54:32.401Z,230.62
2022-09-04T05:55:32.360Z,225.00
2022-09-04T05:56:32.343Z,225.00
2022-09-04T05:57:32.335Z,225.00
2022-09-04T05:58:32.483Z,219.38
2022-09-04T05:59:36.051Z,213.75
2022-09-04T06:00:35.295Z,208.12
2022-09-04T06:01:32.311Z,202.50
2022-09-04T06:02:32.285Z,196.88
2022-09-04T06:03:32.234Z,191.25
2022-09-04T06:04:32.278Z,185.62
2022-09-04T06:05:32.246Z,180.00
2022-09-04T06:06:32.212Z,174.38
2022-09-04T06:07:32.188Z,163.12
2022-09-04T06:08:32.513Z,163.12
2022-09-04T06:09:32.193Z,146.25
2022-09-04T06:10:32.220Z,140.62
2022-09-04T06:11:32.149Z,135.00
2022-09-04T06:12:32.180Z,135.00
2022-09-04T06:13:32.169Z,129.38
2022-09-04T06:14:32.127Z,123.75
2022-09-04T06:15:32.149Z,118.12
2022-09-04T06:16:32.272Z,118.12
2022-09-04T06:17:32.090Z,118.12
2022-09-04T06:18:32.099Z,112.50
2022-09-04T06:19:35.056Z,112.50
2022-09-04T06:20:35.128Z,118.12
2022-09-04T06:21:32.002Z,118.12
2022-09-04T06:22:32.042Z,118.12
2022-09-04T06:23:31.986Z,123.75
2022-09-04T06:24:32.006Z,123.75
2022-09-04T06:25:31.954Z,123.75
2022-09-04T06:26:31.915Z,129.38
2022-09-04T06:27:34.550Z,129.38
2022-09-04T06:28:31.904Z,129.38
2022-09-04T06:29:31.876Z,135.00
2022-09-04T06:30:31.884Z,129.38
2022-09-04T06:31:32.001Z,135.00
2022-09-04T06:32:31.829Z,135.00
2022-09-04T06:33:31.839Z,135.00
2022-09-04T06:34:31.797Z,135.00
2022-09-04T06:35:31.812Z,135.00
2022-09-04T06:36:31.777Z,135.00
2022-09-04T06:37:31.758Z,135.00
2022-09-04T06:38:31.773Z,140.62
2022-09-04T06:39:34.792Z,135.00
2022-09-04T06:40:34.750Z,140.62
2022-09-04T06:41:31.700Z,140.62
2022-09-04T06:42:31.689Z,140.62
2022-09-04T06:43:31.671Z,140.62
2022-09-04T06:44:31.675Z,140.62
2022-09-04T06:45:31.672Z,146.25
2022-09-04T06:46:31.707Z,140.62
2022-09-04T06:47:31.654Z,140.62
2022-09-04T06:48:31.622Z,146.25
2022-09-04T06:49:31.594Z,146.25
2022-09-04T06:50:31.585Z,146.25
2022-09-04T06:51:32.673Z,146.25
2022-09-04T06:52:31.593Z,146.25
2022-09-04T06:53:31.539Z,151.88
2022-09-04T06:54:32.240Z,146.25
2022-09-04T06:55:31.514Z,146.25
2022-09-04T06:56:31.503Z,146.25
2022-09-04T06:57:31.524Z,151.88
2022-09-04T06:58:31.487Z,151.88
2022-09-04T06:59:34.485Z,151.88
2022-09-04T07:00:34.465Z,151.88
2022-09-04T07:01:31.542Z,146.25
2022-09-04T07:02:31.573Z,146.25
2022-09-04T07:03:31.416Z,146.25
2022-09-04T07:04:31.420Z,146.25
2022-09-04T07:05:31.381Z,146.25
2022-09-04T07:06:31.372Z,146.25
2022-09-04T07:07:31.359Z,151.88
2022-09-04T07:08:31.350Z,151.88
2022-09-04T07:09:31.391Z,151.88
2022-09-04T07:10:31.322Z,151.88
2022-09-04T07:11:31.303Z,146.25
2022-09-04T07:12:31.292Z,146.25
2022-09-04T07:13:31.281Z,146.25
2022-09-04T07:14:31.274Z,146.25
2022-09-04T07:15:31.378Z,146.25
2022-09-04T07:16:31.287Z,146.25
2022-09-04T07:17:31.233Z,151.88
2022-09-04T07:18:31.238Z,151.88
2022-09-04T07:19:34.225Z,151.88
2022-09-04T07:20:34.205Z,151.88
2022-09-04T07:21:31.172Z,157.50
2022-09-04T07:22:31.163Z,151.88
2022-09-04T07:23:31.145Z,157.50
2022-09-04T07:24:31.156Z,163.12
2022-09-04T07:25:31.157Z,163.12
2022-09-04T07:26:31.108Z,163.12
2022-09-04T07:27:31.089Z,163.12
2022-09-04T07:28:31.079Z,163.12
2022-09-04T07:29:31.058Z,163.12
2022-09-04T07:30:31.084Z,163.12
2022-09-04T07:31:31.073Z,168.75
2022-09-04T07:32:31.020Z,163.12
2022-09-04T07:33:31.000Z,151.88
2022-09-04T07:34:30.998Z,168.75
2022-09-04T07:35:31.020Z,168.75
2022-09-04T07:36:31.974Z,168.75
2022-09-04T07:37:30.950Z,168.75
2022-09-04T07:38:30.931Z,168.75
2022-09-04T07:39:33.997Z,168.75
2022-09-04T07:40:33.943Z,168.75
2022-09-04T07:41:30.914Z,168.75
2022-09-04T07:42:31.111Z,168.75
2022-09-04T07:43:30.862Z,168.75
2022-09-04T07:44:30.853Z,168.75
2022-09-04T07:45:30.854Z,163.12
2022-09-04T07:46:30.878Z,163.12
2022-09-04T07:47:30.806Z,163.12
2022-09-04T07:48:30.794Z,157.50
2022-09-04T07:49:30.775Z,157.50
2022-09-04T07:50:30.766Z,151.88
2022-09-04T07:51:30.776Z,157.50
2022-09-04T07:52:30.737Z,163.12
2022-09-04T07:53:30.726Z,163.12
2022-09-04T07:54:30.708Z,163.12
2022-09-04T07:55:30.698Z,163.12
2022-09-04T07:56:30.727Z,157.50
2022-09-04T07:57:30.659Z,157.50
2022-09-04T07:58:30.660Z,157.50
2022-09-04T07:59:33.640Z,157.50
2022-09-04T08:00:33.653Z,157.50
2022-09-04T08:01:30.680Z,157.50
2022-09-04T08:02:30.639Z,157.50
2022-09-04T08:03:30.583Z,163.12
2022-09-04T08:04:30.607Z,163.12
2022-09-04T08:05:30.562Z,163.12
2022-09-04T08:06:30.543Z,163.12
2022-09-04T08:07:30.522Z,163.12
2022-09-04T08:08:30.536Z,163.12
2022-09-04T08:09:30.495Z,163.12
2022-09-04T08:10:30.485Z,163.12
2022-09-04T08:11:30.475Z,157.50
2022-09-04T08:12:30.485Z,163.12
2022-09-04T08:13:30.446Z,163.12
2022-09-04T08:14:30.425Z,157.50
2022-09-04T08:15:30.495Z,157.50
2022-09-04T08:16:30.426Z,157.50
2022-09-04T08:17:30.387Z,163.12
2022-09-04T08:18:30.379Z,157.50
2022-09-04T08:19:33.400Z,157.50
2022-09-04T08:20:33.358Z,157.50
2022-09-04T08:21:30.328Z,163.12
2022-09-04T08:22:30.339Z,157.50
2022-09-04T08:23:30.309Z,157.50
2022-09-04T08:24:30.342Z,163.12
2022-09-04T08:25:30.281Z,163.12
2022-09-04T08:26:30.261Z,157.50
2022-09-04T08:27:30.249Z,163.12
2022-09-04T08:28:30.239Z,157.50
2022-09-04T08:29:30.220Z,157.50
2022-09-04T08:30:30.232Z,157.50
2022-09-04T08:31:30.255Z,157.50
2022-09-04T08:32:38.109Z,157.50
2022-09-04T08:33:31.164Z,157.50
2022-09-04T08:34:30.156Z,157.50
2022-09-04T08:35:30.294Z,157.50
2022-09-04T08:36:30.124Z,157.50
2022-09-04T08:37:30.114Z,157.50
2022-09-04T08:38:30.106Z,157.50
2022-09-04T08:39:33.149Z,157.50
2022-09-04T08:40:33.117Z,157.50
2022-09-04T08:41:30.054Z,157.50
2022-09-04T08:42:30.047Z,157.50
2022-09-04T08:43:30.054Z,157.50
2022-09-04T08:44:30.045Z,157.50
2022-09-04T08:45:30.018Z,157.50
2022-09-04T08:46:30.213Z,157.50
2022-09-04T08:47:29.984Z,157.50
2022-09-04T08:48:29.968Z,157.50
2022-09-04T08:49:30.018Z,157.50
2022-09-04T08:50:29.940Z,163.12
2022-09-04T08:51:29.939Z,163.12
2022-09-04T08:52:29.911Z,163.12
2022-09-04T08:53:29.893Z,163.12
2022-09-04T08:54:29.896Z,163.12
2022-09-04T08:55:29.902Z,163.12
2022-09-04T08:56:29.871Z,163.12
2022-09-04T08:57:29.844Z,163.12
2022-09-04T08:58:29.827Z,157.50
2022-09-04T08:59:32.826Z,157.50
2022-09-04T09:00:32.864Z,157.50
2022-09-04T09:01:29.823Z,163.12
2022-09-04T09:02:29.797Z,163.12
2022-09-04T09:03:29.768Z,163.12
2022-09-04T09:04:29.768Z,163.12
2022-09-04T09:05:29.737Z,163.12
2022-09-04T09:06:29.791Z,163.12
2022-09-04T09:07:29.770Z,163.12
2022-09-04T09:08:31.652Z,163.12
2022-09-04T09:09:29.718Z,163.12
2022-09-04T09:10:29.678Z,163.12
2022-09-04T09:11:29.669Z,163.12
2022-09-04T09:12:40.695Z,163.12
2022-09-04T09:13:30.728Z,163.12
2022-09-04T09:14:29.629Z,163.12
2022-09-04T09:15:29.610Z,163.12
2022-09-04T09:16:29.664Z,163.12
2022-09-04T09:17:34.458Z,163.12
2022-09-04T09:18:30.583Z,163.12
2022-09-04T09:19:32.600Z,163.12
2022-09-04T09:20:32.611Z,163.12
2022-09-04T09:21:29.523Z,163.12
2022-09-04T09:22:29.534Z,163.12
2022-09-04T09:23:29.524Z,163.12
2022-09-04T09:24:29.675Z,163.12
2022-09-04T09:25:29.488Z,163.12
2022-09-04T09:26:29.493Z,163.12
2022-09-04T09:27:29.464Z,163.12
2022-09-04T09:28:29.437Z,163.12
2022-09-04T09:29:29.425Z,163.12
2022-09-04T09:30:29.522Z,163.12
2022-09-04T09:31:29.400Z,163.12
2022-09-04T09:32:29.368Z,163.12
2022-09-04T09:33:29.379Z,168.75
2022-09-04T09:34:29.350Z,168.75
2022-09-04T09:35:29.329Z,168.75
2022-09-04T09:36:29.340Z,168.75
2022-09-04T09:37:29.300Z,168.75
2022-09-04T09:38:29.288Z,163.12
2022-09-04T09:39:32.315Z,157.50
2022-09-04T09:40:32.303Z,157.50
2022-09-04T09:41:29.253Z,157.50
2022-09-04T09:42:29.234Z,163.12
2022-09-04T09:43:29.224Z,168.75
2022-09-04T09:44:29.204Z,168.75
2022-09-04T09:45:29.234Z,168.75
2022-09-04T09:46:29.308Z,168.75
2022-09-04T09:47:29.194Z,174.38
2022-09-04T09:48:29.165Z,174.38
2022-09-04T09:49:29.157Z,174.38
2022-09-04T09:50:29.150Z,174.38
2022-09-04T09:51:29.177Z,168.75
2022-09-04T09:52:29.147Z,168.75
2022-09-04T09:53:29.120Z,168.75
2022-09-04T09:54:29.140Z,168.75
2022-09-04T09:55:29.078Z,168.75
2022-09-04T09:56:29.058Z,174.38
2022-09-04T09:57:33.738Z,174.38
2022-09-04T09:58:30.032Z,168.75
2022-09-04T09:59:32.050Z,174.38
2022-09-04T10:00:32.091Z,174.38
2022-09-04T10:01:29.039Z,174.38
2022-09-04T10:02:29.042Z,174.38
2022-09-04T10:03:29.001Z,174.38
2022-09-04T10:04:34.211Z,180.00
2022-09-04T10:05:29.926Z,180.00
2022-09-04T10:06:28.944Z,180.00
2022-09-04T10:07:28.950Z,180.00
2022-09-04T10:08:36.111Z,180.00
2022-09-04T10:09:29.894Z,180.00
2022-09-04T10:10:28.866Z,180.00
2022-09-04T10:11:28.896Z,180.00
2022-09-04T10:12:28.846Z,174.38
2022-09-04T10:13:28.848Z,168.75
2022-09-04T10:14:28.864Z,168.75
2022-09-04T10:15:28.808Z,174.38
2022-09-04T10:16:28.879Z,174.38
2022-09-04T10:17:28.799Z,180.00
2022-09-04T10:18:28.782Z,180.00
2022-09-04T10:19:31.749Z,180.00
2022-09-04T10:20:31.789Z,180.00
2022-09-04T10:21:28.734Z,180.00
2022-09-04T10:22:28.748Z,180.00
2022-09-04T10:23:28.690Z,180.00
2022-09-04T10:24:28.683Z,180.00
2022-09-04T10:25:28.691Z,180.00
2022-09-04T10:26:29.191Z,180.00
2022-09-04T10:27:28.653Z,185.62
2022-09-04T10:28:28.654Z,180.00
2022-09-04T10:29:28.614Z,185.62
2022-09-04T10:30:28.644Z,180.00
2022-09-04T10:31:28.666Z,174.38
2022-09-04T10:32:28.576Z,180.00
2022-09-04T10:33:28.580Z,180.00
2022-09-04T10:34:28.557Z,180.00
2022-09-04T10:35:28.526Z,180.00
2022-09-04T10:36:28.533Z,180.00
2022-09-04T10:37:28.538Z,174.38
2022-09-04T10:38:28.498Z,174.38
2022-09-04T10:39:31.519Z,168.75
2022-09-04T10:40:31.481Z,168.75
2022-09-04T10:41:28.472Z,174.38
2022-09-04T10:42:28.449Z,185.62
2022-09-04T10:43:28.461Z,185.62
2022-09-04T10:44:28.402Z,185.62
2022-09-04T10:45:28.432Z,185.62
2022-09-04T10:46:28.411Z,191.25
2022-09-04T10:47:28.366Z,185.62
2022-09-04T10:48:28.836Z,191.25
2022-09-04T10:49:28.358Z,191.25
2022-09-04T10:50:28.324Z,191.25
2022-09-04T10:51:28.335Z,185.62
2022-09-04T10:52:28.327Z,185.62
2022-09-04T10:53:28.617Z,185.62
2022-09-04T10:54:28.286Z,185.62
2022-09-04T10:55:28.317Z,185.62
2022-09-04T10:56:28.257Z,191.25
2022-09-04T10:57:28.237Z,191.25
2022-09-04T10:58:28.229Z,191.25
2022-09-04T10:59:39.947Z,196.88
2022-09-04T11:00:31.192Z,191.25
2022-09-04T11:01:28.306Z,191.25
2022-09-04T11:02:28.201Z,191.25
2022-09-04T11:03:28.200Z,196.88
2022-09-04T11:04:28.130Z,202.50
2022-09-04T11:05:28.120Z,196.88
2022-09-04T11:06:28.782Z,202.50
2022-09-04T11:07:28.851Z,202.50
2022-09-04T11:08:28.073Z,202.50
2022-09-04T11:09:28.094Z,208.12
2022-09-04T11:10:28.062Z,208.12
2022-09-04T11:11:28.044Z,208.12
2022-09-04T11:12:28.023Z,208.12
2022-09-04T11:13:28.015Z,213.75
2022-09-04T11:14:28.056Z,208.12
2022-09-04T11:15:27.987Z,208.12
2022-09-04T11:16:28.005Z,213.75
2022-09-04T11:17:27.959Z,219.38
2022-09-04T11:18:27.937Z,213.75
2022-09-04T11:19:30.960Z,213.75
2022-09-04T11:20:30.948Z,219.38
2022-09-04T11:21:27.928Z,219.38
2022-09-04T11:22:27.886Z,219.38
2022-09-04T11:23:27.879Z,219.38
2022-09-04T11:24:27.860Z,219.38
2022-09-04T11:25:27.850Z,213.75
2022-09-04T11:26:27.868Z,213.75
2022-09-04T11:27:27.820Z,213.75
2022-09-04T11:28:27.800Z,213.75
2022-09-04T11:29:27.793Z,213.75
2022-09-04T11:30:27.780Z,202.50
2022-09-04T11:31:27.870Z,202.50
2022-09-04T11:32:27.751Z,191.25
2022-09-04T11:33:27.737Z,196.88
2022-09-04T11:34:27.747Z,196.88
2022-09-04T11:35:28.560Z,202.50
2022-09-04T11:36:27.794Z,196.88
2022-09-04T11:37:27.899Z,185.62
2022-09-04T11:38:27.768Z,185.62
2022-09-04T11:39:30.732Z,185.62
2022-09-04T11:40:30.651Z,191.25
2022-09-04T11:41:27.638Z,202.50
2022-09-04T11:42:27.633Z,196.88
2022-09-04T11:43:27.631Z,196.88
2022-09-04T11:44:27.590Z,185.62
2022-09-04T11:45:27.603Z,180.00
2022-09-04T11:46:27.569Z,185.62
2022-09-04T11:47:27.544Z,191.25
2022-09-04T11:48:27.556Z,196.88
2022-09-04T11:49:27.514Z,191.25
2022-09-04T11:50:27.497Z,191.25
2022-09-04T11:51:27.497Z,191.25
2022-09-04T11:52:27.466Z,191.25
2022-09-04T11:53:27.484Z,196.88
2022-09-04T11:54:27.472Z,196.88
2022-09-04T11:55:27.427Z,202.50
2022-09-04T11:56:27.416Z,202.50
2022-09-04T11:57:27.399Z,208.12
2022-09-04T11:58:27.386Z,213.75
2022-09-04T11:59:30.566Z,202.50
2022-09-04T12:00:30.370Z,196.88
2022-09-04T12:01:27.350Z,196.88
2022-09-04T12:02:27.375Z,208.12
2022-09-04T12:03:27.320Z,208.12
2022-09-04T12:04:27.392Z,208.12
2022-09-04T12:05:27.322Z,213.75
2022-09-04T12:06:27.312Z,219.38
2022-09-04T12:07:31.902Z,225.00
2022-09-04T12:08:28.256Z,225.00
2022-09-04T12:09:27.234Z,230.62
2022-09-04T12:10:27.245Z,236.25
2022-09-04T12:11:27.205Z,230.62
2022-09-04T12:12:27.197Z,236.25
2022-09-04T12:13:27.583Z,236.25
2022-09-04T12:14:27.247Z,230.62
2022-09-04T12:15:27.169Z,219.38
2022-09-04T12:16:27.303Z,225.00
2022-09-04T12:17:27.128Z,219.38
2022-09-04T12:18:27.142Z,213.75
2022-09-04T12:19:30.099Z,219.38
2022-09-04T12:20:30.101Z,219.38
2022-09-04T12:21:27.091Z,213.75
2022-09-04T12:22:27.053Z,208.12
2022-09-04T12:23:27.143Z,196.88
2022-09-04T12:24:27.028Z,202.50
2022-09-04T12:25:27.021Z,202.50
2022-09-04T12:26:27.004Z,196.88
2022-09-04T12:27:27.055Z,196.88
2022-09-04T12:28:26.974Z,196.88
2022-09-04T12:29:26.972Z,208.12
2022-09-04T12:30:26.945Z,213.75
2022-09-04T12:31:26.959Z,213.75
2022-09-04T12:32:26.926Z,208.12
2022-09-04T12:33:26.987Z,196.88
2022-09-04T12:34:26.957Z,196.88
2022-09-04T12:35:31.621Z,196.88
2022-09-04T12:36:27.893Z,202.50
2022-09-04T12:37:26.859Z,202.50
2022-09-04T12:38:26.910Z,196.88
2022-09-04T12:39:29.914Z,196.88
2022-09-04T12:40:29.901Z,191.25
2022-09-04T12:41:26.801Z,196.88
2022-09-04T12:42:26.783Z,196.88
2022-09-04T12:43:26.780Z,196.88
2022-09-04T12:44:26.812Z,196.88
2022-09-04T12:45:26.786Z,191.25
2022-09-04T12:46:26.735Z,180.00